Kezdőlap
METAR-TAF:

METAR-TAF

Repülőterek :

Iowa City Municipal Airport

Iowa City, Iowa, Amerikai Egyesült Államok

földrajzi szélesség: 41-37-58N, földrajzi hosszúság: 091-32-35W, magasság: 203 m

Jelenlegi meteorológiai megfigyelések

A jelentés 48 perccel ezelõtt készült, 06:52 UTC
Kelet-délkeleti szél 11 kt széllökések: 20 kt
Hőmérséklet 14°C
Páratartalom 94%
Légköri nyomás 1004 hPa
Látótávolság: 16.1 km
Borult 700 lábon

METAR: KIOW 220652Z AUTO 12011G20KT 10SM OVC007 14/13 A2965 RMK AO2 CIG 006V010 SLP040 T01440133 $

Idő: 02:40 (07:40 UTC)


TAF: hiányzik

Meteorológiai megfigyelések és előrejelzések több, mint 4000 repülőtéren (METAR és TAF jelentéseket).

A térképen piros és sárga pontok jelzik az elérhető meteorológiai állomásokat.

Mozgassa az egeret a pont fölött, hogy megjelenjen az állomás neve.

Azután kattintson az időjárási megfigyelések és előrejelzések megtekintéséhez.

A térkép megváltoztatása: kattintson a fekete keresztel jelölt zöld gombra ráközelítéshez, a vonallal jelölt zöld gombra távolításhoz, vagy a zöld nyilakra a szomszédos térképek eléréséhez.


METAR-TAF: